AAL4785 KLAX-MMPR
Flight info
| Callsign | AAL4785 |
|---|---|
| Flight time | N/A |
| Altitude | 37000 |
| Route | PNDAH2 OTAYY DCT TIJ UT4 LMM UJ3 MZT J141 OBRUG OBRUG1B |
| Aircraft | A319/M-SDE3FGHIRWY/LB1 |
Departure
| Time | 2026-04-26 20:50 |
|---|---|
| Airport | Los Angeles International Airport (KLAX) |
Arrival
| Time | N/A |
|---|---|
| Airport | Puerto Vallarta International Airport (MMPR) |
| Time | Latitude | Longitude | Altitude | Speed | Heading |
|---|---|---|---|---|---|
| 2026-04-26 20:24 | 33.94290 | -118.39547 | 94 ft | 0 kts | 269° |
| 2026-04-26 20:39 | 33.94290 | -118.39534 | 95 ft | 3 kts | 269° |
| 2026-04-26 20:40 | 33.94287 | -118.39513 | 92 ft | 2 kts | 263° |
| 2026-04-26 20:40 | 33.94295 | -118.39496 | 92 ft | 2 kts | 197° |
| 2026-04-26 20:40 | 33.94301 | -118.39494 | 93 ft | 0 kts | 178° |
| 2026-04-26 20:43 | 33.94297 | -118.39493 | 92 ft | 2 kts | 173° |
| 2026-04-26 20:43 | 33.94273 | -118.39490 | 95 ft | 4 kts | 175° |
| 2026-04-26 20:43 | 33.94249 | -118.39489 | 93 ft | 4 kts | 178° |
| 2026-04-26 20:44 | 33.94221 | -118.39488 | 93 ft | 4 kts | 179° |
| 2026-04-26 20:44 | 33.94167 | -118.39489 | 93 ft | 11 kts | 181° |
| 2026-04-26 20:44 | 33.94098 | -118.39505 | 94 ft | 9 kts | 194° |
| 2026-04-26 20:44 | 33.94037 | -118.39517 | 93 ft | 9 kts | 186° |
| 2026-04-26 20:45 | 33.93977 | -118.39524 | 94 ft | 8 kts | 182° |
| 2026-04-26 20:45 | 33.93954 | -118.39521 | 94 ft | 2 kts | 173° |
| 2026-04-26 20:45 | 33.93938 | -118.39515 | 94 ft | 4 kts | 148° |
| 2026-04-26 20:45 | 33.93935 | -118.39448 | 94 ft | 15 kts | 83° |
| 2026-04-26 20:46 | 33.93948 | -118.39317 | 93 ft | 16 kts | 82° |
| 2026-04-26 20:46 | 33.93962 | -118.39183 | 95 ft | 16 kts | 83° |
| 2026-04-26 20:46 | 33.93975 | -118.39055 | 94 ft | 15 kts | 83° |
| 2026-04-26 20:46 | 33.93988 | -118.38930 | 94 ft | 15 kts | 83° |
| 2026-04-26 20:47 | 33.94001 | -118.38805 | 94 ft | 15 kts | 83° |
| 2026-04-26 20:47 | 33.94010 | -118.38723 | 94 ft | 14 kts | 84° |
| 2026-04-26 20:47 | 33.94025 | -118.38569 | 95 ft | 14 kts | 83° |
| 2026-04-26 20:47 | 33.94037 | -118.38457 | 96 ft | 13 kts | 84° |
| 2026-04-26 20:48 | 33.94047 | -118.38346 | 96 ft | 13 kts | 83° |
| 2026-04-26 20:48 | 33.94059 | -118.38234 | 95 ft | 14 kts | 83° |
| 2026-04-26 20:48 | 33.94072 | -118.38113 | 94 ft | 15 kts | 83° |
| 2026-04-26 20:48 | 33.94068 | -118.38019 | 94 ft | 10 kts | 124° |
| 2026-04-26 20:49 | 33.94004 | -118.38003 | 95 ft | 10 kts | 195° |
| 2026-04-26 20:49 | 33.93982 | -118.38025 | 94 ft | 3 kts | 236° |
| 2026-04-26 20:49 | 33.93979 | -118.38050 | 94 ft | 4 kts | 267° |
| 2026-04-26 20:49 | 33.93958 | -118.38301 | 98 ft | 71 kts | 263° |
| 2026-04-26 20:50 | 33.93863 | -118.39217 | 94 ft | 145 kts | 263° |
| 2026-04-26 20:50 | 33.93736 | -118.40549 | 565 ft | 164 kts | 264° |
| 2026-04-26 20:50 | 33.93603 | -118.41949 | 1221 ft | 176 kts | 263° |
| 2026-04-26 20:50 | 33.93443 | -118.43499 | 1668 ft | 199 kts | 260° |
| 2026-04-26 20:51 | 33.92782 | -118.45066 | 2050 ft | 228 kts | 227° |
| 2026-04-26 20:51 | 33.91378 | -118.46118 | 2448 ft | 249 kts | 204° |
| 2026-04-26 20:51 | 33.89730 | -118.46878 | 2826 ft | 256 kts | 201° |
| 2026-04-26 20:51 | 33.88045 | -118.47610 | 3203 ft | 258 kts | 201° |
| 2026-04-26 20:52 | 33.86322 | -118.48248 | 3578 ft | 261 kts | 194° |
| 2026-04-26 20:52 | 33.84540 | -118.48692 | 3957 ft | 262 kts | 193° |
| 2026-04-26 20:52 | 33.82766 | -118.49107 | 4326 ft | 264 kts | 192° |
| 2026-04-26 20:52 | 33.80994 | -118.49513 | 4707 ft | 265 kts | 192° |
| 2026-04-26 20:53 | 33.79177 | -118.49926 | 5212 ft | 267 kts | 192° |
| 2026-04-26 20:53 | 33.77346 | -118.50341 | 5716 ft | 269 kts | 192° |
| 2026-04-26 20:53 | 33.75502 | -118.50759 | 6217 ft | 271 kts | 192° |
| 2026-04-26 20:53 | 33.73642 | -118.51177 | 6713 ft | 273 kts | 191° |
| 2026-04-26 20:54 | 33.71731 | -118.51180 | 7224 ft | 278 kts | 171° |
| 2026-04-26 20:54 | 33.69909 | -118.50370 | 7723 ft | 283 kts | 150° |
| 2026-04-26 20:54 | 33.68423 | -118.48818 | 8226 ft | 287 kts | 128° |
| 2026-04-26 20:54 | 33.67415 | -118.46737 | 8729 ft | 290 kts | 117° |
| 2026-04-26 20:55 | 33.66498 | -118.44570 | 9229 ft | 292 kts | 117° |
| 2026-04-26 20:55 | 33.65566 | -118.42389 | 9736 ft | 294 kts | 117° |
| 2026-04-26 20:55 | 33.64620 | -118.40188 | 10245 ft | 303 kts | 118° |
| 2026-04-26 20:55 | 33.63625 | -118.37882 | 10754 ft | 319 kts | 118° |
| 2026-04-26 20:56 | 33.62588 | -118.35476 | 11258 ft | 329 kts | 118° |
| 2026-04-26 20:56 | 33.61532 | -118.33025 | 11763 ft | 333 kts | 118° |
| 2026-04-26 20:56 | 33.60462 | -118.30545 | 12271 ft | 335 kts | 118° |
| 2026-04-26 20:56 | 33.59379 | -118.28050 | 12765 ft | 338 kts | 118° |
| 2026-04-26 20:57 | 33.58658 | -118.26388 | 13103 ft | 340 kts | 118° |
| 2026-04-26 20:57 | 33.57564 | -118.23868 | 13606 ft | 342 kts | 118° |
| 2026-04-26 20:57 | 33.56462 | -118.21325 | 14109 ft | 344 kts | 118° |
| 2026-04-26 20:57 | 33.55354 | -118.18766 | 14608 ft | 347 kts | 118° |
| 2026-04-26 20:58 | 33.54239 | -118.16189 | 15114 ft | 350 kts | 118° |
| 2026-04-26 20:58 | 33.53115 | -118.13593 | 15616 ft | 352 kts | 118° |
| 2026-04-26 20:58 | 33.51984 | -118.10969 | 16126 ft | 355 kts | 118° |
| 2026-04-26 20:58 | 33.50850 | -118.08329 | 16624 ft | 357 kts | 117° |
| 2026-04-26 20:59 | 33.49708 | -118.05668 | 16908 ft | 361 kts | 118° |
| 2026-04-26 20:59 | 33.48560 | -118.02997 | 16990 ft | 360 kts | 118° |
| 2026-04-26 20:59 | 33.47360 | -118.00364 | 17226 ft | 361 kts | 124° |
| 2026-04-26 20:59 | 33.45844 | -117.98053 | 17692 ft | 361 kts | 136° |
| 2026-04-26 21:00 | 33.43966 | -117.95990 | 17959 ft | 374 kts | 142° |
| 2026-04-26 21:00 | 33.41990 | -117.93908 | 18230 ft | 381 kts | 142° |
| 2026-04-26 21:00 | 33.40007 | -117.91807 | 18462 ft | 385 kts | 143° |
| 2026-04-26 21:00 | 33.38718 | -117.90438 | 18612 ft | 386 kts | 143° |
| 2026-04-26 21:01 | 33.36704 | -117.88294 | 18848 ft | 388 kts | 143° |
| 2026-04-26 21:01 | 33.34686 | -117.86146 | 19083 ft | 389 kts | 143° |
| 2026-04-26 21:01 | 33.32654 | -117.83983 | 19322 ft | 391 kts | 143° |
| 2026-04-26 21:01 | 33.30618 | -117.81822 | 19560 ft | 392 kts | 143° |
| 2026-04-26 21:02 | 33.28574 | -117.79657 | 19802 ft | 393 kts | 143° |
| 2026-04-26 21:02 | 33.26525 | -117.77489 | 20050 ft | 394 kts | 143° |
| 2026-04-26 21:02 | 33.24469 | -117.75314 | 20298 ft | 396 kts | 143° |
| 2026-04-26 21:02 | 33.22403 | -117.73132 | 20535 ft | 397 kts | 144° |
| 2026-04-26 21:03 | 33.20333 | -117.70947 | 20783 ft | 398 kts | 144° |
| 2026-04-26 21:03 | 33.18251 | -117.68755 | 21041 ft | 399 kts | 144° |
| 2026-04-26 21:03 | 33.16167 | -117.66561 | 21286 ft | 400 kts | 144° |
| 2026-04-26 21:03 | 33.14090 | -117.64332 | 21555 ft | 402 kts | 143° |
| 2026-04-26 21:04 | 33.12031 | -117.62054 | 21816 ft | 404 kts | 142° |
| 2026-04-26 21:04 | 33.09982 | -117.59748 | 22080 ft | 406 kts | 142° |
| 2026-04-26 21:04 | 33.07932 | -117.57433 | 22345 ft | 407 kts | 142° |
| 2026-04-26 21:04 | 33.05869 | -117.55108 | 22612 ft | 409 kts | 143° |
| 2026-04-26 21:05 | 33.03795 | -117.52786 | 22887 ft | 410 kts | 143° |
| 2026-04-26 21:05 | 33.01709 | -117.50462 | 23126 ft | 412 kts | 144° |
| 2026-04-26 21:05 | 32.99605 | -117.48130 | 23394 ft | 414 kts | 144° |
| 2026-04-26 21:05 | 32.97521 | -117.45825 | 23671 ft | 415 kts | 144° |
| 2026-04-26 21:06 | 32.95402 | -117.43482 | 23903 ft | 417 kts | 144° |
| 2026-04-26 21:06 | 32.93271 | -117.41129 | 24137 ft | 419 kts | 144° |
| 2026-04-26 21:06 | 32.91130 | -117.38764 | 24372 ft | 420 kts | 145° |
| 2026-04-26 21:06 | 32.88980 | -117.36387 | 24609 ft | 422 kts | 145° |
| 2026-04-26 21:07 | 32.86821 | -117.34001 | 24848 ft | 424 kts | 145° |
| 2026-04-26 21:07 | 32.84656 | -117.31606 | 25087 ft | 426 kts | 146° |
| 2026-04-26 21:07 | 32.82481 | -117.29202 | 25332 ft | 428 kts | 146° |
| 2026-04-26 21:07 | 32.80296 | -117.26789 | 25578 ft | 430 kts | 146° |
| 2026-04-26 21:08 | 32.78101 | -117.24369 | 25824 ft | 431 kts | 146° |
| 2026-04-26 21:08 | 32.75894 | -117.21939 | 26069 ft | 434 kts | 147° |
| 2026-04-26 21:08 | 32.73676 | -117.19498 | 26316 ft | 436 kts | 147° |
| 2026-04-26 21:08 | 32.71444 | -117.17046 | 26548 ft | 438 kts | 147° |
| 2026-04-26 21:09 | 32.69206 | -117.14592 | 26799 ft | 439 kts | 148° |
| 2026-04-26 21:09 | 32.66957 | -117.12128 | 27072 ft | 442 kts | 147° |
| 2026-04-26 21:09 | 32.64819 | -117.09440 | 27281 ft | 451 kts | 143° |
| 2026-04-26 21:09 | 32.62707 | -117.06666 | 27538 ft | 455 kts | 143° |
| 2026-04-26 21:10 | 32.60614 | -117.03912 | 27775 ft | 457 kts | 143° |
| 2026-04-26 21:10 | 32.58476 | -117.01102 | 28037 ft | 459 kts | 144° |
| 2026-04-26 21:10 | 32.56327 | -116.98280 | 28303 ft | 462 kts | 144° |
| 2026-04-26 21:10 | 32.54165 | -116.95449 | 28598 ft | 464 kts | 144° |
| 2026-04-26 21:11 | 32.51983 | -116.92618 | 28871 ft | 465 kts | 145° |
| 2026-04-26 21:11 | 32.49782 | -116.89801 | 29144 ft | 467 kts | 145° |
| 2026-04-26 21:11 | 32.47558 | -116.86977 | 29413 ft | 469 kts | 146° |
| 2026-04-26 21:11 | 32.45332 | -116.84158 | 29626 ft | 470 kts | 146° |
| 2026-04-26 21:12 | 32.43093 | -116.81321 | 29899 ft | 471 kts | 146° |
| 2026-04-26 21:12 | 32.40854 | -116.78478 | 30167 ft | 473 kts | 146° |
| 2026-04-26 21:12 | 32.38606 | -116.75622 | 30398 ft | 475 kts | 146° |
| 2026-04-26 21:12 | 32.36352 | -116.72755 | 30624 ft | 477 kts | 146° |
| 2026-04-26 21:13 | 32.34092 | -116.69877 | 30844 ft | 478 kts | 146° |
| 2026-04-26 21:13 | 32.31825 | -116.66993 | 31091 ft | 479 kts | 146° |
| 2026-04-26 21:13 | 32.29575 | -116.64140 | 31338 ft | 481 kts | 146° |
| 2026-04-26 21:13 | 32.27282 | -116.61245 | 31538 ft | 482 kts | 146° |
| 2026-04-26 21:14 | 32.24991 | -116.58357 | 31782 ft | 481 kts | 146° |
| 2026-04-26 21:14 | 32.22700 | -116.55466 | 32011 ft | 480 kts | 146° |
| 2026-04-26 21:14 | 32.20422 | -116.52592 | 32270 ft | 479 kts | 146° |
| 2026-04-26 21:14 | 32.18145 | -116.49718 | 32519 ft | 479 kts | 146° |
| 2026-04-26 21:15 | 32.15870 | -116.46848 | 32775 ft | 478 kts | 146° |
| 2026-04-26 21:15 | 32.13601 | -116.43985 | 33035 ft | 478 kts | 146° |
| 2026-04-26 21:15 | 32.11326 | -116.41118 | 33305 ft | 477 kts | 146° |
| 2026-04-26 21:15 | 32.09058 | -116.38265 | 33528 ft | 477 kts | 146° |
| 2026-04-26 21:16 | 32.06792 | -116.35415 | 33791 ft | 476 kts | 146° |
| 2026-04-26 21:16 | 32.04522 | -116.32568 | 34057 ft | 476 kts | 146° |
| 2026-04-26 21:16 | 32.02257 | -116.29730 | 34284 ft | 475 kts | 147° |
| 2026-04-26 21:16 | 31.99993 | -116.26895 | 34514 ft | 475 kts | 147° |
| 2026-04-26 21:17 | 31.97734 | -116.24064 | 34705 ft | 475 kts | 146° |
| 2026-04-26 21:17 | 31.95473 | -116.21231 | 34945 ft | 474 kts | 146° |
| 2026-04-26 21:17 | 31.93213 | -116.18400 | 35183 ft | 474 kts | 146° |
| 2026-04-26 21:17 | 31.90955 | -116.15580 | 35422 ft | 474 kts | 147° |
| 2026-04-26 21:18 | 31.88721 | -116.12794 | 35615 ft | 473 kts | 147° |
| 2026-04-26 21:18 | 31.86466 | -116.09982 | 35859 ft | 473 kts | 147° |
| 2026-04-26 21:18 | 31.84211 | -116.07167 | 36103 ft | 473 kts | 147° |
| 2026-04-26 21:18 | 31.81953 | -116.04352 | 36354 ft | 472 kts | 147° |
| 2026-04-26 21:19 | 31.79697 | -116.01546 | 36603 ft | 472 kts | 147° |
| 2026-04-26 21:19 | 31.77413 | -115.98706 | 36850 ft | 472 kts | 147° |
| 2026-04-26 21:19 | 31.75153 | -115.95901 | 36997 ft | 472 kts | 147° |
| 2026-04-26 21:20 | 31.70576 | -115.90249 | 37027 ft | 485 kts | 147° |
| 2026-04-26 21:20 | 31.65915 | -115.84494 | 37015 ft | 492 kts | 146° |
| 2026-04-26 21:21 | 31.61209 | -115.78637 | 37021 ft | 493 kts | 146° |
| 2026-04-26 21:21 | 31.56601 | -115.72915 | 37104 ft | 492 kts | 137° |
| 2026-04-26 21:21 | 31.54261 | -115.70024 | 36982 ft | 485 kts | 136° |
| 2026-04-26 21:22 | 31.51943 | -115.67167 | 36913 ft | 484 kts | 145° |
| 2026-04-26 21:22 | 31.47246 | -115.61416 | 36998 ft | 492 kts | 146° |
| 2026-04-26 21:23 | 31.40135 | -115.52683 | 37007 ft | 495 kts | 146° |
| 2026-04-26 21:23 | 31.35393 | -115.46856 | 36984 ft | 495 kts | 147° |
| 2026-04-26 21:24 | 31.30637 | -115.41017 | 36937 ft | 495 kts | 146° |
| 2026-04-26 21:24 | 31.25869 | -115.35189 | 36954 ft | 496 kts | 146° |
| 2026-04-26 21:25 | 31.21094 | -115.29369 | 36967 ft | 496 kts | 146° |
| 2026-04-26 21:25 | 31.16334 | -115.23561 | 36961 ft | 495 kts | 146° |
| 2026-04-26 21:26 | 31.11572 | -115.17756 | 36964 ft | 494 kts | 146° |
| 2026-04-26 21:26 | 31.06841 | -115.12001 | 36914 ft | 494 kts | 146° |
| 2026-04-26 21:27 | 31.02073 | -115.06229 | 36920 ft | 494 kts | 146° |
| 2026-04-26 21:27 | 30.97297 | -115.00453 | 36922 ft | 495 kts | 146° |
| 2026-04-26 21:28 | 30.92525 | -114.94676 | 36935 ft | 495 kts | 146° |
| 2026-04-26 21:28 | 30.87753 | -114.88903 | 36940 ft | 494 kts | 146° |
| 2026-04-26 21:29 | 30.82975 | -114.83141 | 36945 ft | 494 kts | 146° |
| 2026-04-26 21:29 | 30.78194 | -114.77396 | 36949 ft | 494 kts | 146° |
| 2026-04-26 21:30 | 30.73414 | -114.71650 | 36945 ft | 494 kts | 146° |
| 2026-04-26 21:30 | 30.68663 | -114.65940 | 36896 ft | 494 kts | 146° |
| 2026-04-26 21:31 | 30.63877 | -114.60192 | 36914 ft | 495 kts | 146° |
| 2026-04-26 21:31 | 30.59083 | -114.54450 | 36923 ft | 496 kts | 146° |
| 2026-04-26 21:32 | 30.54275 | -114.48706 | 36925 ft | 496 kts | 146° |
| 2026-04-26 21:32 | 30.49461 | -114.42962 | 36929 ft | 496 kts | 146° |
| 2026-04-26 21:33 | 30.44642 | -114.37226 | 36953 ft | 498 kts | 146° |
| 2026-04-26 21:33 | 30.39809 | -114.31481 | 36954 ft | 498 kts | 146° |
| 2026-04-26 21:34 | 30.34977 | -114.25732 | 36957 ft | 497 kts | 146° |
| 2026-04-26 21:34 | 30.30149 | -114.20002 | 36955 ft | 497 kts | 147° |
| 2026-04-26 21:35 | 30.25314 | -114.14278 | 36920 ft | 497 kts | 147° |
| 2026-04-26 21:35 | 30.20476 | -114.08565 | 36931 ft | 497 kts | 147° |
| 2026-04-26 21:36 | 30.16454 | -114.03817 | 36935 ft | 497 kts | 147° |
| 2026-04-26 21:36 | 30.10830 | -113.97176 | 36941 ft | 498 kts | 147° |
| 2026-04-26 21:37 | 30.05983 | -113.91468 | 36904 ft | 498 kts | 147° |
| 2026-04-26 21:37 | 30.01123 | -113.85765 | 36923 ft | 498 kts | 147° |
| 2026-04-26 21:38 | 29.96266 | -113.80063 | 36938 ft | 498 kts | 147° |
| 2026-04-26 21:38 | 29.91417 | -113.74361 | 36937 ft | 498 kts | 146° |
| 2026-04-26 21:39 | 29.86552 | -113.68675 | 36941 ft | 498 kts | 147° |
| 2026-04-26 21:39 | 29.81691 | -113.63008 | 36932 ft | 498 kts | 146° |
| 2026-04-26 21:40 | 29.76825 | -113.57325 | 36942 ft | 498 kts | 146° |
| 2026-04-26 21:40 | 29.71960 | -113.51650 | 36947 ft | 498 kts | 146° |
| 2026-04-26 21:41 | 29.67085 | -113.45978 | 36952 ft | 498 kts | 147° |
| 2026-04-26 21:41 | 29.62215 | -113.40315 | 36911 ft | 498 kts | 146° |
| 2026-04-26 21:42 | 29.57364 | -113.34689 | 36921 ft | 498 kts | 146° |
| 2026-04-26 21:42 | 29.52483 | -113.29043 | 36932 ft | 498 kts | 146° |
| 2026-04-26 21:43 | 29.47600 | -113.23387 | 36941 ft | 498 kts | 146° |
| 2026-04-26 21:43 | 29.42714 | -113.17739 | 36946 ft | 498 kts | 146° |
| 2026-04-26 21:44 | 29.37856 | -113.12138 | 36928 ft | 497 kts | 146° |
| 2026-04-26 21:44 | 29.32978 | -113.06507 | 36949 ft | 497 kts | 146° |
| 2026-04-26 21:45 | 29.28099 | -113.00886 | 36948 ft | 497 kts | 146° |
| 2026-04-26 21:45 | 29.23217 | -112.95276 | 36952 ft | 497 kts | 146° |
| 2026-04-26 21:46 | 29.18321 | -112.89670 | 36904 ft | 497 kts | 146° |
| 2026-04-26 21:46 | 29.14258 | -112.85023 | 36918 ft | 497 kts | 146° |
| 2026-04-26 21:47 | 29.09368 | -112.79434 | 36932 ft | 497 kts | 146° |
| 2026-04-26 21:47 | 29.04475 | -112.73847 | 36947 ft | 497 kts | 146° |
| 2026-04-26 21:48 | 28.99580 | -112.68267 | 36947 ft | 497 kts | 146° |
| 2026-04-26 21:48 | 28.94685 | -112.62680 | 36923 ft | 497 kts | 146° |
| 2026-04-26 21:49 | 28.89787 | -112.57099 | 36933 ft | 497 kts | 146° |
| 2026-04-26 21:49 | 28.84885 | -112.51531 | 36941 ft | 497 kts | 146° |
| 2026-04-26 21:50 | 28.79966 | -112.45960 | 36945 ft | 497 kts | 146° |
| 2026-04-26 21:50 | 28.75094 | -112.40439 | 36942 ft | 497 kts | 146° |
| 2026-04-26 21:51 | 28.70186 | -112.34884 | 36939 ft | 497 kts | 146° |
| 2026-04-26 21:51 | 28.65270 | -112.29329 | 36939 ft | 497 kts | 146° |
| 2026-04-26 21:52 | 28.60358 | -112.23786 | 36939 ft | 497 kts | 146° |
| 2026-04-26 21:52 | 28.55447 | -112.18267 | 36933 ft | 497 kts | 146° |
| 2026-04-26 21:53 | 28.50526 | -112.12737 | 36899 ft | 497 kts | 146° |
| 2026-04-26 21:53 | 28.45615 | -112.07211 | 36918 ft | 496 kts | 146° |
| 2026-04-26 21:54 | 28.40732 | -112.01738 | 36925 ft | 496 kts | 146° |
| 2026-04-26 21:54 | 28.35817 | -111.96234 | 36930 ft | 496 kts | 146° |
| 2026-04-26 21:55 | 28.30900 | -111.90733 | 36931 ft | 496 kts | 146° |
| 2026-04-26 21:55 | 28.25985 | -111.85238 | 36908 ft | 496 kts | 146° |
| 2026-04-26 21:56 | 28.21072 | -111.79754 | 36919 ft | 496 kts | 146° |
| 2026-04-26 21:56 | 28.16153 | -111.74264 | 36913 ft | 495 kts | 146° |
| 2026-04-26 21:57 | 28.11265 | -111.68827 | 36923 ft | 495 kts | 146° |
| 2026-04-26 21:57 | 28.06338 | -111.63359 | 36928 ft | 495 kts | 146° |
| 2026-04-26 21:58 | 28.01415 | -111.57912 | 36912 ft | 495 kts | 146° |
| 2026-04-26 21:58 | 27.96494 | -111.52454 | 36924 ft | 495 kts | 146° |
| 2026-04-26 21:59 | 27.91575 | -111.47007 | 36930 ft | 495 kts | 146° |
| 2026-04-26 21:59 | 27.86656 | -111.41566 | 36933 ft | 494 kts | 146° |
| 2026-04-26 22:00 | 27.81732 | -111.36130 | 36888 ft | 494 kts | 145° |
| 2026-04-26 22:00 | 27.76849 | -111.30744 | 36906 ft | 494 kts | 146° |
| 2026-04-26 22:01 | 27.71928 | -111.25325 | 36910 ft | 494 kts | 146° |
| 2026-04-26 22:01 | 27.66995 | -111.19910 | 36916 ft | 494 kts | 146° |
| 2026-04-26 22:02 | 27.62069 | -111.14514 | 36919 ft | 494 kts | 146° |
| 2026-04-26 22:02 | 27.57146 | -111.09119 | 36878 ft | 494 kts | 145° |
| 2026-04-26 22:03 | 27.52225 | -111.03720 | 36898 ft | 493 kts | 145° |
| 2026-04-26 22:03 | 27.47306 | -110.98337 | 36902 ft | 493 kts | 146° |
| 2026-04-26 22:04 | 27.42372 | -110.92958 | 36907 ft | 493 kts | 146° |
| 2026-04-26 22:04 | 27.37465 | -110.87618 | 36911 ft | 493 kts | 146° |
| 2026-04-26 22:05 | 27.32538 | -110.82243 | 36889 ft | 493 kts | 145° |
| 2026-04-26 22:05 | 27.27612 | -110.76880 | 36895 ft | 493 kts | 145° |
| 2026-04-26 22:06 | 27.22677 | -110.71524 | 36902 ft | 493 kts | 146° |
| 2026-04-26 22:06 | 27.17741 | -110.66175 | 36906 ft | 493 kts | 146° |
| 2026-04-26 22:07 | 27.12804 | -110.60824 | 36888 ft | 494 kts | 145° |
| 2026-04-26 22:07 | 27.07862 | -110.55472 | 36892 ft | 500 kts | 145° |
| 2026-04-26 22:08 | 27.02817 | -110.50025 | 36900 ft | 504 kts | 145° |
| 2026-04-26 22:08 | 26.97767 | -110.44568 | 36894 ft | 504 kts | 145° |
| 2026-04-26 22:09 | 26.92716 | -110.39114 | 36893 ft | 505 kts | 145° |
| 2026-04-26 22:09 | 26.87651 | -110.33658 | 36893 ft | 505 kts | 145° |
| 2026-04-26 22:10 | 26.82607 | -110.28249 | 36874 ft | 505 kts | 145° |
| 2026-04-26 22:10 | 26.77538 | -110.22811 | 36889 ft | 505 kts | 145° |
| 2026-04-26 22:11 | 26.72471 | -110.17375 | 36896 ft | 505 kts | 145° |
| 2026-04-26 22:11 | 26.67400 | -110.11936 | 36895 ft | 505 kts | 145° |
| 2026-04-26 22:12 | 26.62328 | -110.06514 | 36893 ft | 505 kts | 145° |
| 2026-04-26 22:12 | 26.57256 | -110.01093 | 36880 ft | 504 kts | 145° |
| 2026-04-26 22:13 | 26.52185 | -109.95678 | 36894 ft | 504 kts | 145° |
| 2026-04-26 22:13 | 26.47105 | -109.90269 | 36897 ft | 504 kts | 145° |
| 2026-04-26 22:14 | 26.42063 | -109.84912 | 36889 ft | 504 kts | 145° |
| 2026-04-26 22:14 | 26.36989 | -109.79514 | 36893 ft | 504 kts | 145° |
| 2026-04-26 22:15 | 26.31918 | -109.74132 | 36886 ft | 503 kts | 145° |
| 2026-04-26 22:15 | 26.26839 | -109.68748 | 36896 ft | 504 kts | 145° |
| 2026-04-26 22:16 | 26.21759 | -109.63375 | 36899 ft | 504 kts | 145° |
| 2026-04-26 22:16 | 26.16679 | -109.58007 | 36893 ft | 504 kts | 145° |
| 2026-04-26 22:17 | 26.11599 | -109.52644 | 36900 ft | 504 kts | 145° |
| 2026-04-26 22:17 | 26.06511 | -109.47274 | 36889 ft | 503 kts | 145° |
| 2026-04-26 22:18 | 26.01457 | -109.41953 | 36882 ft | 503 kts | 145° |
| 2026-04-26 22:18 | 25.96371 | -109.36598 | 36887 ft | 504 kts | 145° |
| 2026-04-26 22:19 | 25.91272 | -109.31253 | 36892 ft | 504 kts | 145° |
| 2026-04-26 22:19 | 25.86166 | -109.25909 | 36896 ft | 504 kts | 145° |
| 2026-04-26 22:20 | 25.81929 | -109.21466 | 36882 ft | 504 kts | 144° |
| 2026-04-26 22:20 | 25.75975 | -109.15221 | 36897 ft | 504 kts | 144° |
| 2026-04-26 22:21 | 25.70876 | -109.09888 | 36893 ft | 504 kts | 144° |
| 2026-04-26 22:21 | 25.65800 | -109.04518 | 36897 ft | 506 kts | 143° |
| 2026-04-26 22:22 | 25.60882 | -108.98900 | 36896 ft | 509 kts | 141° |
| 2026-04-26 22:22 | 25.56030 | -108.93191 | 36873 ft | 509 kts | 141° |
| 2026-04-26 22:23 | 25.51137 | -108.87531 | 36880 ft | 508 kts | 142° |
| 2026-04-26 22:23 | 25.46204 | -108.81936 | 36885 ft | 508 kts | 142° |
| 2026-04-26 22:24 | 25.41295 | -108.76385 | 36886 ft | 508 kts | 142° |
| 2026-04-26 22:24 | 25.36361 | -108.70787 | 36884 ft | 508 kts | 142° |
| 2026-04-26 22:25 | 25.31433 | -108.65180 | 36867 ft | 508 kts | 142° |
| 2026-04-26 22:25 | 25.26500 | -108.59582 | 36875 ft | 508 kts | 142° |
| 2026-04-26 22:26 | 25.21566 | -108.53996 | 36881 ft | 508 kts | 142° |
| 2026-04-26 22:26 | 25.16624 | -108.48410 | 36887 ft | 508 kts | 142° |
| 2026-04-26 22:27 | 25.11683 | -108.42825 | 36886 ft | 508 kts | 142° |
| 2026-04-26 22:27 | 25.06735 | -108.37253 | 36858 ft | 509 kts | 141° |
| 2026-04-26 22:28 | 25.01781 | -108.31672 | 36875 ft | 509 kts | 141° |
| 2026-04-26 22:28 | 24.96827 | -108.26094 | 36873 ft | 509 kts | 141° |
| 2026-04-26 22:29 | 24.91870 | -108.20517 | 36885 ft | 509 kts | 142° |
| 2026-04-26 22:29 | 24.86903 | -108.14948 | 36885 ft | 509 kts | 142° |
| 2026-04-26 22:30 | 24.84453 | -108.12203 | 36882 ft | 509 kts | 142° |
| 2026-04-26 22:30 | 24.79927 | -108.07127 | 36857 ft | 509 kts | 141° |
| 2026-04-26 22:31 | 24.74963 | -108.01569 | 36872 ft | 509 kts | 141° |
| 2026-04-26 22:31 | 24.69998 | -107.96026 | 36882 ft | 508 kts | 142° |
| 2026-04-26 22:32 | 24.65032 | -107.90488 | 36885 ft | 508 kts | 141° |
| 2026-04-26 22:32 | 24.60074 | -107.84947 | 36886 ft | 508 kts | 141° |
| 2026-04-26 22:33 | 24.52639 | -107.76652 | 36884 ft | 508 kts | 141° |
| 2026-04-26 22:34 | 24.47676 | -107.71136 | 36888 ft | 507 kts | 141° |
| 2026-04-26 22:34 | 24.42739 | -107.65654 | 36889 ft | 508 kts | 141° |
| 2026-04-26 22:35 | 24.37772 | -107.60133 | 36877 ft | 508 kts | 141° |
| 2026-04-26 22:35 | 24.32806 | -107.54622 | 36880 ft | 508 kts | 141° |
| 2026-04-26 22:36 | 24.27837 | -107.49131 | 36867 ft | 507 kts | 141° |
| 2026-04-26 22:36 | 24.22867 | -107.43643 | 36881 ft | 507 kts | 141° |
| 2026-04-26 22:37 | 24.17901 | -107.38160 | 36883 ft | 507 kts | 141° |
| 2026-04-26 22:37 | 24.12932 | -107.32677 | 36885 ft | 507 kts | 141° |
| 2026-04-26 22:38 | 24.08795 | -107.28118 | 36883 ft | 507 kts | 141° |
| 2026-04-26 22:38 | 24.03011 | -107.21759 | 36886 ft | 507 kts | 141° |